createdAt,value
2023-04-13T00:00:17.824Z,100.00
2023-04-13T00:02:46.702Z,100.00
2023-04-13T00:05:15.022Z,100.00
2023-04-13T00:07:43.402Z,100.00
2023-04-13T00:10:11.742Z,100.00
2023-04-13T00:12:41.060Z,100.00
2023-04-13T00:15:11.258Z,100.00
2023-04-13T00:17:39.236Z,100.00
2023-04-13T00:20:13.207Z,100.00
2023-04-13T00:22:41.329Z,100.00
2023-04-13T00:25:10.662Z,100.00
2023-04-13T00:27:39.315Z,100.00
2023-04-13T00:30:09.871Z,100.00
2023-04-13T00:32:43.053Z,100.00
2023-04-13T00:35:12.488Z,100.00
2023-04-13T00:37:43.261Z,100.00
2023-04-13T00:40:13.412Z,100.00
2023-04-13T00:42:41.311Z,99.86
2023-04-13T00:45:09.970Z,100.00
2023-04-13T00:47:41.772Z,100.00
2023-04-13T00:50:10.482Z,100.00
2023-04-13T00:52:39.314Z,99.91
2023-04-13T00:55:08.254Z,99.67
2023-04-13T00:57:36.772Z,99.48
2023-04-13T01:00:08.628Z,100.00
2023-04-13T01:02:37.120Z,100.00
2023-04-13T01:05:07.323Z,100.00
2023-04-13T01:07:41.863Z,100.00
2023-04-13T01:10:17.130Z,100.00
2023-04-13T01:12:52.549Z,100.00
2023-04-13T01:15:21.113Z,99.73
2023-04-13T01:17:57.016Z,98.25
2023-04-13T01:20:29.210Z,96.44
2023-04-13T01:22:59.708Z,97.84
2023-04-13T01:25:38.397Z,96.43
2023-04-13T01:28:09.923Z,97.37
2023-04-13T01:30:39.463Z,97.56
2023-04-13T01:33:08.819Z,96.39
2023-04-13T01:35:38.166Z,96.68
2023-04-13T01:38:08.776Z,98.46
2023-04-13T01:40:41.121Z,98.38
2023-04-13T01:43:10.486Z,99.36
2023-04-13T01:45:47.501Z,97.91
2023-04-13T01:48:21.672Z,97.92
2023-04-13T01:50:52.481Z,97.16
2023-04-13T01:53:23.064Z,97.21
2023-04-13T01:55:51.161Z,97.82
2023-04-13T01:58:21.888Z,98.28
2023-04-13T02:00:50.227Z,98.13
2023-04-13T02:03:18.322Z,99.75
2023-04-13T02:05:46.317Z,99.56
2023-04-13T02:08:14.265Z,98.85
2023-04-13T02:10:43.090Z,100.00
2023-04-13T02:13:11.009Z,100.00
2023-04-13T02:15:41.572Z,99.92
2023-04-13T02:18:10.667Z,100.00
2023-04-13T02:20:43.869Z,100.00
2023-04-13T02:23:14.813Z,100.00
2023-04-13T02:25:47.605Z,100.00
2023-04-13T02:28:17.896Z,100.00
2023-04-13T02:30:47.558Z,100.00
2023-04-13T02:33:15.646Z,100.00
2023-04-13T02:35:43.767Z,100.00
2023-04-13T02:38:11.808Z,100.00
2023-04-13T02:40:39.726Z,100.00
2023-04-13T02:43:07.618Z,100.00
2023-04-13T02:45:35.545Z,100.00
2023-04-13T02:48:05.604Z,100.00
2023-04-13T02:50:33.516Z,100.00
2023-04-13T02:53:01.562Z,100.00
2023-04-13T02:55:29.516Z,100.00
2023-04-13T02:57:58.072Z,100.00
2023-04-13T03:00:26.310Z,100.00
2023-04-13T03:02:54.882Z,100.00
2023-04-13T03:05:24.271Z,100.00
2023-04-13T03:07:52.197Z,100.00
2023-04-13T03:10:20.349Z,100.00
2023-04-13T03:12:48.943Z,99.73
2023-04-13T03:15:18.307Z,99.31
2023-04-13T03:17:46.717Z,98.02
2023-04-13T03:20:16.701Z,97.08
2023-04-13T03:22:46.215Z,96.31
2023-04-13T03:25:14.181Z,96.12
2023-04-13T03:27:42.072Z,99.79
2023-04-13T03:30:11.065Z,99.55
2023-04-13T03:32:39.073Z,100.00
2023-04-13T03:35:07.474Z,100.00
2023-04-13T03:37:40.545Z,100.00
2023-04-13T03:40:11.299Z,100.00
2023-04-13T03:42:39.529Z,100.00
2023-04-13T03:45:08.234Z,100.00
2023-04-13T03:47:36.209Z,100.00
2023-04-13T03:50:04.562Z,100.00
2023-04-13T03:52:32.611Z,100.00
2023-04-13T03:55:01.043Z,100.00
2023-04-13T03:57:30.859Z,100.00
2023-04-13T03:59:58.832Z,100.00
2023-04-13T04:02:27.490Z,100.00
2023-04-13T04:04:56.184Z,100.00
2023-04-13T04:07:24.127Z,100.00
2023-04-13T04:09:52.159Z,100.00
2023-04-13T04:12:20.062Z,100.00
2023-04-13T04:14:49.427Z,100.00
2023-04-13T04:17:17.365Z,100.00
2023-04-13T04:19:45.309Z,100.00
2023-04-13T04:22:14.085Z,100.00
2023-04-13T04:24:43.212Z,100.00
2023-04-13T04:27:14.432Z,100.00
2023-04-13T04:29:49.117Z,100.00
2023-04-13T04:32:18.583Z,100.00
2023-04-13T04:34:46.855Z,100.00
2023-04-13T04:37:20.723Z,100.00
2023-04-13T04:39:49.124Z,100.00
2023-04-13T04:42:18.966Z,100.00
2023-04-13T04:44:50.446Z,100.00
2023-04-13T04:47:19.938Z,100.00
2023-04-13T04:49:47.937Z,100.00
2023-04-13T04:52:15.890Z,100.00
2023-04-13T04:54:43.956Z,100.00
2023-04-13T04:57:12.418Z,100.00
2023-04-13T04:59:40.957Z,100.00
2023-04-13T05:02:09.257Z,100.00
2023-04-13T05:04:39.984Z,100.00
2023-04-13T05:07:08.252Z,100.00
2023-04-13T05:09:37.112Z,100.00
2023-04-13T05:12:05.349Z,98.13
2023-04-13T05:14:33.309Z,95.92
2023-04-13T05:17:02.233Z,96.50
2023-04-13T05:19:32.760Z,91.84
2023-04-13T05:22:02.474Z,93.63
2023-04-13T05:24:31.189Z,92.14
2023-04-13T05:26:59.111Z,88.93
2023-04-13T05:29:27.000Z,88.34
2023-04-13T05:31:54.996Z,88.88
2023-04-13T05:34:22.973Z,86.17
2023-04-13T05:36:50.860Z,85.25
2023-04-13T05:39:20.568Z,84.02
2023-04-13T05:41:48.527Z,76.84
2023-04-13T05:44:16.423Z,77.07
2023-04-13T05:46:44.365Z,77.53
2023-04-13T05:49:12.306Z,74.08
2023-04-13T05:51:40.265Z,75.22
2023-04-13T05:54:10.045Z,76.41
2023-04-13T05:56:39.323Z,76.29
2023-04-13T05:59:07.282Z,71.89
2023-04-13T06:01:36.519Z,72.73
2023-04-13T06:04:06.132Z,73.51
2023-04-13T06:06:36.043Z,73.54
2023-04-13T06:09:05.778Z,76.54
2023-04-13T06:11:33.713Z,75.49
2023-04-13T06:14:03.635Z,73.81
2023-04-13T06:16:31.640Z,69.63
2023-04-13T06:19:01.260Z,68.80
2023-04-13T06:21:30.231Z,65.63
2023-04-13T06:23:58.161Z,66.16
2023-04-13T06:26:26.272Z,66.57
2023-04-13T06:28:54.482Z,64.71
2023-04-13T06:31:27.637Z,65.70
2023-04-13T06:33:56.883Z,65.71
2023-04-13T06:36:24.912Z,64.83
2023-04-13T06:38:53.198Z,63.25
2023-04-13T06:41:21.107Z,62.46
2023-04-13T06:43:49.038Z,62.47
2023-04-13T06:46:19.570Z,60.13
2023-04-13T06:48:49.955Z,65.28
2023-04-13T06:51:17.916Z,60.92
2023-04-13T06:53:45.830Z,60.62
2023-04-13T06:56:13.729Z,62.00
2023-04-13T06:58:41.634Z,56.00
2023-04-13T07:01:09.733Z,56.34
2023-04-13T07:03:37.808Z,59.48
2023-04-13T07:06:09.270Z,59.46
2023-04-13T07:08:37.206Z,58.38
2023-04-13T07:11:05.270Z,58.55
2023-04-13T07:13:33.194Z,55.86
2023-04-13T07:16:01.115Z,59.89
2023-04-13T07:18:29.104Z,58.96
2023-04-13T07:20:57.117Z,56.87
2023-04-13T07:23:26.404Z,55.69
2023-04-13T07:25:54.323Z,54.38
2023-04-13T07:28:22.270Z,53.80
2023-04-13T07:30:50.192Z,53.84
2023-04-13T07:33:18.144Z,56.53
2023-04-13T07:35:46.348Z,54.79
2023-04-13T07:38:14.932Z,51.99
2023-04-13T07:40:44.228Z,57.02
2023-04-13T07:43:12.179Z,55.84
2023-04-13T07:45:40.077Z,53.00
2023-04-13T07:48:08.312Z,51.94
2023-04-13T07:50:41.857Z,55.19
2023-04-13T07:53:09.799Z,58.86
2023-04-13T07:55:38.216Z,58.20
2023-04-13T07:58:07.582Z,56.57
2023-04-13T08:00:35.712Z,54.92
2023-04-13T08:03:03.805Z,54.55
2023-04-13T08:05:31.940Z,56.30
2023-04-13T08:07:59.917Z,57.67
2023-04-13T08:10:27.872Z,58.37
2023-04-13T08:12:55.766Z,59.85
2023-04-13T08:15:26.382Z,55.33
2023-04-13T08:17:54.390Z,55.32
2023-04-13T08:20:22.396Z,55.03
2023-04-13T08:22:50.417Z,53.12
2023-04-13T08:25:18.581Z,55.16
2023-04-13T08:27:46.499Z,57.36
2023-04-13T08:30:14.709Z,57.65
2023-04-13T08:32:44.127Z,52.27
2023-04-13T08:35:12.571Z,58.76
2023-04-13T08:37:40.685Z,58.22
2023-04-13T08:40:12.326Z,52.57
2023-04-13T08:42:40.294Z,51.34
2023-04-13T08:45:09.546Z,50.70
2023-04-13T08:47:37.799Z,52.70
2023-04-13T08:50:09.162Z,53.01
2023-04-13T08:52:38.004Z,51.85
2023-04-13T08:55:06.959Z,52.28
2023-04-13T08:57:35.670Z,51.15
2023-04-13T09:00:16.652Z,50.67
2023-04-13T09:03:00.247Z,49.52
2023-04-13T09:05:39.478Z,48.02
2023-04-13T09:08:08.363Z,48.30
2023-04-13T09:10:36.649Z,47.50
2023-04-13T09:13:04.936Z,46.73
2023-04-13T09:15:33.551Z,48.01
2023-04-13T09:18:11.404Z,49.84
2023-04-13T09:20:41.396Z,47.65
2023-04-13T09:23:16.315Z,54.18
2023-04-13T09:25:45.486Z,48.41
2023-04-13T09:28:20.266Z,49.05
2023-04-13T09:30:48.675Z,47.56
2023-04-13T09:33:17.030Z,49.80
2023-04-13T09:35:47.055Z,48.28
2023-04-13T09:38:16.930Z,48.73
2023-04-13T09:40:54.374Z,51.50
2023-04-13T09:43:22.471Z,57.98
2023-04-13T09:45:51.006Z,49.93
2023-04-13T09:48:20.823Z,45.88
2023-04-13T09:51:02.012Z,48.33
2023-04-13T09:53:42.536Z,43.39
2023-04-13T09:56:10.934Z,51.58
2023-04-13T09:58:43.627Z,45.87
2023-04-13T10:01:11.764Z,42.85
2023-04-13T10:03:40.142Z,45.50
2023-04-13T10:06:10.474Z,41.24
2023-04-13T10:08:39.269Z,42.91
2023-04-13T10:11:13.300Z,41.17
2023-04-13T10:13:49.389Z,41.04
2023-04-13T10:16:40.532Z,42.51
2023-04-13T10:19:12.698Z,42.67
2023-04-13T10:21:46.276Z,43.60
2023-04-13T10:24:15.849Z,41.73
2023-04-13T10:26:45.229Z,40.02
2023-04-13T10:29:15.082Z,41.87
2023-04-13T10:31:48.177Z,40.96
2023-04-13T10:34:26.505Z,45.56
2023-04-13T10:36:58.609Z,41.33
2023-04-13T10:39:27.879Z,43.41
2023-04-13T10:42:03.269Z,44.35
2023-04-13T10:44:42.825Z,43.06
2023-04-13T10:47:11.505Z,41.51
2023-04-13T10:49:41.038Z,38.28
2023-04-13T10:52:11.611Z,39.84
2023-04-13T10:54:40.697Z,44.02
2023-04-13T10:57:09.887Z,40.64
2023-04-13T11:02:17.904Z,42.97
2023-04-13T11:04:48.131Z,41.68
2023-04-13T11:07:19.853Z,35.96
2023-04-13T11:09:50.746Z,40.06
2023-04-13T11:12:19.786Z,37.41
2023-04-13T11:14:48.042Z,36.96
2023-04-13T11:17:17.796Z,39.35
2023-04-13T11:19:50.579Z,36.12
2023-04-13T11:22:23.186Z,35.59
2023-04-13T11:24:52.410Z,37.04
2023-04-13T11:27:21.833Z,35.67
2023-04-13T11:29:59.217Z,40.04
2023-04-13T11:32:28.186Z,41.04
2023-04-13T11:35:06.489Z,38.33
2023-04-13T11:37:38.615Z,39.58
2023-04-13T11:40:14.693Z,37.90
2023-04-13T11:42:45.381Z,38.14
2023-04-13T11:45:15.858Z,41.75
2023-04-13T11:47:44.484Z,37.59
2023-04-13T11:50:15.423Z,39.34
2023-04-13T11:52:46.746Z,36.93
2023-04-13T11:55:23.070Z,37.68
2023-04-13T11:57:53.148Z,39.55
2023-04-13T12:00:26.498Z,38.90
2023-04-13T12:05:29.383Z,37.15
2023-04-13T12:08:00.864Z,37.23
2023-04-13T12:10:38.983Z,38.97
2023-04-13T12:16:05.261Z,37.43
2023-04-13T12:18:43.694Z,34.15
2023-04-13T12:21:16.379Z,37.69
2023-04-13T12:23:55.307Z,37.49
2023-04-13T12:27:09.953Z,42.44
2023-04-13T12:29:15.420Z,40.04
2023-04-13T12:31:45.775Z,38.20
2023-04-13T12:34:13.852Z,37.58
2023-04-13T12:36:41.805Z,36.99
2023-04-13T12:39:11.412Z,38.84
2023-04-13T12:41:39.455Z,35.20
2023-04-13T12:44:07.575Z,36.95
2023-04-13T12:46:36.231Z,33.04
2023-04-13T12:49:04.422Z,31.90
2023-04-13T12:51:33.124Z,34.00
2023-04-13T12:54:01.530Z,38.47
2023-04-13T12:56:33.578Z,36.18
2023-04-13T12:59:02.177Z,39.72
2023-04-13T13:01:30.489Z,34.71
2023-04-13T13:03:58.590Z,36.14
2023-04-13T13:06:27.881Z,35.83
2023-04-13T13:08:55.800Z,36.26
2023-04-13T13:11:23.836Z,33.94
2023-04-13T13:13:53.428Z,39.37
2023-04-13T13:16:21.617Z,35.59
2023-04-13T13:18:51.209Z,34.46
2023-04-13T13:21:21.245Z,41.15
2023-04-13T13:23:49.458Z,39.24
2023-04-13T13:28:48.720Z,37.63
2023-04-13T13:31:18.027Z,40.17
2023-04-13T13:33:46.036Z,37.61
2023-04-13T13:36:14.877Z,36.12
2023-04-13T13:38:43.464Z,37.17
2023-04-13T13:41:11.692Z,35.43
2023-04-13T13:43:40.032Z,38.31
2023-04-13T13:46:08.371Z,35.03
2023-04-13T13:48:37.785Z,32.37
2023-04-13T13:51:07.474Z,32.27
2023-04-13T13:53:35.956Z,32.24
2023-04-13T13:56:05.166Z,32.97
2023-04-13T13:58:33.393Z,34.30
2023-04-13T14:01:01.523Z,39.13
2023-04-13T14:03:29.792Z,33.94
2023-04-13T14:05:59.470Z,35.74
2023-04-13T14:08:27.906Z,37.01
2023-04-13T14:10:56.246Z,33.32
2023-04-13T14:13:24.479Z,33.22
2023-04-13T14:15:52.972Z,35.48
2023-04-13T14:18:20.965Z,32.94
2023-04-13T14:20:49.016Z,35.52
2023-04-13T14:23:18.953Z,36.46
2023-04-13T14:25:47.031Z,39.86
2023-04-13T14:28:15.216Z,37.24
2023-04-13T14:30:43.183Z,44.09
2023-04-13T14:33:13.726Z,47.12
2023-04-13T14:35:41.884Z,42.84
2023-04-13T14:38:10.118Z,43.96
2023-04-13T14:40:39.550Z,44.24
2023-04-13T14:43:07.910Z,46.40
2023-04-13T14:45:36.020Z,38.55
2023-04-13T14:48:04.220Z,35.47
2023-04-13T14:50:32.262Z,37.18
2023-04-13T14:53:00.192Z,36.77
2023-04-13T14:55:28.072Z,36.31
2023-04-13T14:57:59.869Z,38.35
2023-04-13T15:00:39.043Z,42.43
2023-04-13T15:03:08.386Z,43.13
2023-04-13T15:05:38.688Z,41.31
2023-04-13T15:08:07.552Z,44.59
2023-04-13T15:10:35.983Z,46.87
2023-04-13T15:13:06.445Z,43.95
2023-04-13T15:15:35.990Z,42.89
2023-04-13T15:18:05.847Z,40.19
2023-04-13T15:20:34.073Z,41.65
2023-04-13T15:23:02.042Z,41.12
2023-04-13T15:25:30.190Z,39.46
2023-04-13T15:27:59.593Z,34.95
2023-04-13T15:30:30.761Z,39.79
2023-04-13T15:33:02.326Z,37.27
2023-04-13T15:35:31.458Z,38.54
2023-04-13T15:38:02.324Z,37.95
2023-04-13T15:40:33.846Z,38.01
2023-04-13T15:43:02.009Z,38.40
2023-04-13T15:45:31.781Z,39.32
2023-04-13T15:47:59.974Z,40.74
2023-04-13T15:50:28.193Z,40.78
2023-04-13T15:52:57.156Z,41.50
2023-04-13T15:55:25.317Z,45.71
2023-04-13T15:57:53.964Z,45.09
2023-04-13T16:00:22.348Z,44.48
2023-04-13T16:02:52.025Z,43.58
2023-04-13T16:05:20.229Z,45.67
2023-04-13T16:07:48.366Z,43.50
2023-04-13T16:10:17.148Z,39.99
2023-04-13T16:12:45.611Z,40.36
2023-04-13T16:15:14.058Z,41.78
2023-04-13T16:17:44.231Z,40.60
2023-04-13T16:20:21.269Z,41.10
2023-04-13T16:22:53.084Z,41.69
2023-04-13T16:25:21.463Z,41.77
2023-04-13T16:27:50.028Z,42.28
2023-04-13T16:30:20.960Z,42.69
2023-04-13T16:32:51.365Z,43.31
2023-04-13T16:35:20.852Z,48.78
2023-04-13T16:37:48.844Z,49.54
2023-04-13T16:40:17.218Z,51.50
2023-04-13T16:42:46.164Z,51.84
2023-04-13T16:45:15.652Z,53.10
2023-04-13T16:47:43.964Z,55.48
2023-04-13T16:50:13.430Z,55.57
2023-04-13T16:52:42.878Z,56.15
2023-04-13T16:55:14.778Z,55.89
2023-04-13T16:57:43.811Z,58.01
2023-04-13T17:00:13.052Z,59.04
2023-04-13T17:02:42.759Z,58.04
2023-04-13T17:05:12.624Z,59.44
2023-04-13T17:07:43.548Z,59.75
2023-04-13T17:10:12.983Z,59.75
2023-04-13T17:12:41.567Z,60.43
2023-04-13T17:15:10.761Z,61.27
2023-04-13T17:17:39.039Z,62.46
2023-04-13T17:20:08.471Z,63.65
2023-04-13T17:22:36.463Z,64.24
2023-04-13T17:25:06.911Z,64.75
2023-04-13T17:27:34.852Z,64.54
2023-04-13T17:30:02.954Z,64.08
2023-04-13T17:32:30.926Z,65.01
2023-04-13T17:34:58.856Z,66.01
2023-04-13T17:37:27.046Z,66.66
2023-04-13T17:39:54.959Z,67.50
2023-04-13T17:42:24.312Z,67.76
2023-04-13T17:44:52.401Z,68.77
2023-04-13T17:47:20.327Z,69.60
2023-04-13T17:49:48.239Z,69.92
2023-04-13T17:52:16.306Z,70.48
2023-04-13T17:54:44.482Z,70.44
2023-04-13T17:57:12.429Z,71.80
2023-04-13T17:59:43.129Z,71.65
2023-04-13T18:02:11.149Z,71.87
2023-04-13T18:04:39.180Z,71.74
2023-04-13T18:07:07.422Z,72.18
2023-04-13T18:09:35.388Z,72.42
2023-04-13T18:12:03.565Z,72.88
2023-04-13T18:14:31.535Z,73.66
2023-04-13T18:17:00.823Z,73.75
2023-04-13T18:19:30.564Z,73.96
2023-04-13T18:21:58.494Z,75.05
2023-04-13T18:24:26.537Z,74.78
2023-04-13T18:26:54.426Z,75.39
2023-04-13T18:29:22.334Z,75.63
2023-04-13T18:31:50.458Z,75.78
2023-04-13T18:34:19.874Z,75.04
2023-04-13T18:36:47.814Z,74.69
2023-04-13T18:39:15.746Z,75.59
2023-04-13T18:41:43.675Z,75.83
2023-04-13T18:44:11.608Z,75.93
2023-04-13T18:46:39.582Z,76.17
2023-04-13T18:49:07.679Z,75.51
2023-04-13T18:51:37.032Z,75.92
2023-04-13T18:54:05.083Z,76.07
2023-04-13T18:56:33.042Z,75.23
2023-04-13T18:59:00.985Z,76.31
2023-04-13T19:01:28.972Z,76.21
2023-04-13T19:03:57.310Z,76.43
2023-04-13T19:06:26.415Z,76.08
2023-04-13T19:08:55.702Z,77.46
2023-04-13T19:11:27.527Z,76.46
2023-04-13T19:13:56.009Z,77.04
2023-04-13T19:16:24.343Z,77.24
2023-04-13T19:18:52.310Z,77.08
2023-04-13T19:21:23.906Z,77.89
2023-04-13T19:23:51.924Z,77.36
2023-04-13T19:26:21.309Z,77.11
2023-04-13T19:28:49.216Z,76.36
2023-04-13T19:31:17.602Z,77.13
2023-04-13T19:33:46.502Z,76.62
2023-04-13T19:36:14.452Z,77.15
2023-04-13T19:38:45.031Z,77.99
2023-04-13T19:41:13.172Z,77.84
2023-04-13T19:43:42.438Z,77.86
2023-04-13T19:46:10.401Z,78.04
2023-04-13T19:48:38.714Z,78.35
2023-04-13T19:51:06.840Z,78.23
2023-04-13T19:53:36.777Z,78.82
2023-04-13T19:56:05.918Z,78.53
2023-04-13T19:58:34.156Z,77.31
2023-04-13T20:01:06.323Z,77.50
2023-04-13T20:03:34.524Z,76.84
2023-04-13T20:06:02.823Z,75.73
2023-04-13T20:08:30.964Z,76.08
2023-04-13T20:10:59.910Z,74.55
2023-04-13T20:13:27.979Z,76.60
2023-04-13T20:15:56.149Z,76.96
2023-04-13T20:18:25.478Z,76.50
2023-04-13T20:20:53.377Z,76.47
2023-04-13T20:23:21.585Z,77.35
2023-04-13T20:25:49.514Z,77.56
2023-04-13T20:28:17.884Z,76.57
2023-04-13T20:30:45.842Z,75.88
2023-04-13T20:33:13.818Z,75.76
2023-04-13T20:35:43.260Z,76.55
2023-04-13T20:38:13.957Z,76.31
2023-04-13T20:40:45.676Z,76.30
2023-04-13T20:43:15.822Z,77.42
2023-04-13T20:45:45.398Z,76.91
2023-04-13T20:50:48.073Z,77.41
2023-04-13T20:53:17.397Z,75.78
2023-04-13T20:55:45.396Z,76.53
2023-04-13T20:58:13.308Z,75.98
2023-04-13T21:00:42.552Z,75.98
2023-04-13T21:03:10.604Z,75.77
2023-04-13T21:05:38.679Z,77.11
2023-04-13T21:08:08.092Z,75.88
2023-04-13T21:10:36.112Z,76.77
2023-04-13T21:13:04.044Z,76.31
2023-04-13T21:15:31.975Z,74.71
2023-04-13T21:17:59.923Z,75.97
2023-04-13T21:20:27.961Z,76.21
2023-04-13T21:22:55.934Z,76.08
2023-04-13T21:25:26.749Z,76.04
2023-04-13T21:27:54.782Z,76.27
2023-04-13T21:30:22.686Z,75.82
2023-04-13T21:32:50.605Z,76.25
2023-04-13T21:35:18.727Z,76.54
2023-04-13T21:37:46.652Z,76.65
2023-04-13T21:40:14.679Z,77.16
2023-04-13T21:42:45.109Z,75.73
2023-04-13T21:45:13.149Z,76.67
2023-04-13T21:47:41.108Z,76.16
2023-04-13T21:50:09.954Z,76.12
2023-04-13T21:52:37.901Z,76.83
2023-04-13T21:55:06.600Z,76.40
2023-04-13T21:57:34.508Z,77.21
2023-04-13T22:00:06.380Z,74.31
2023-04-13T22:02:34.671Z,74.53
2023-04-13T22:05:02.653Z,75.09
2023-04-13T22:07:41.786Z,75.83
2023-04-13T22:10:11.451Z,76.83
2023-04-13T22:12:39.427Z,76.52
2023-04-13T22:15:09.653Z,77.30
2023-04-13T22:17:37.726Z,77.19
2023-04-13T22:20:06.470Z,78.21
2023-04-13T22:22:34.395Z,77.41
2023-04-13T22:25:02.293Z,75.82
2023-04-13T22:27:30.195Z,76.33
2023-04-13T22:29:58.132Z,75.40
2023-04-13T22:32:28.492Z,77.23
2023-04-13T22:34:56.443Z,77.42
2023-04-13T22:37:24.470Z,77.42
2023-04-13T22:39:52.388Z,77.73
2023-04-13T22:42:20.474Z,76.12
2023-04-13T22:44:48.433Z,77.46
2023-04-13T22:47:16.343Z,78.25
2023-04-13T22:49:45.764Z,77.88
2023-04-13T22:52:13.860Z,77.38
2023-04-13T22:54:41.790Z,78.92
2023-04-13T22:57:09.701Z,76.90
2023-04-13T22:59:37.604Z,76.55
2023-04-13T23:02:05.740Z,77.32
2023-04-13T23:04:33.928Z,76.62
2023-04-13T23:07:03.295Z,76.58
2023-04-13T23:09:31.273Z,76.17
2023-04-13T23:11:59.876Z,78.81
2023-04-13T23:14:28.908Z,79.24
2023-04-13T23:16:56.852Z,77.59
2023-04-13T23:19:24.755Z,76.46
2023-04-13T23:21:52.663Z,78.66
2023-04-13T23:24:21.964Z,78.48
2023-04-13T23:26:49.871Z,79.20
2023-04-13T23:29:19.859Z,78.40
2023-04-13T23:31:47.918Z,79.42
2023-04-13T23:34:15.864Z,79.60
2023-04-13T23:36:43.880Z,80.56
2023-04-13T23:39:11.763Z,80.53
2023-04-13T23:41:41.226Z,80.14
2023-04-13T23:44:09.140Z,79.70
2023-04-13T23:46:37.225Z,78.71
2023-04-13T23:49:05.192Z,81.26
2023-04-13T23:51:33.104Z,80.82
2023-04-13T23:54:01.074Z,82.49
2023-04-13T23:56:28.980Z,84.17
2023-04-13T23:58:58.367Z,81.96
